createdAt,value
2022-09-17T00:01:29.776Z,96165.47
2022-09-17T00:04:00.548Z,96163.16
2022-09-17T00:06:27.945Z,96165.44
2022-09-17T00:08:56.430Z,96170.13
2022-09-17T00:11:26.993Z,96168.56
2022-09-17T00:13:55.185Z,96162.34
2022-09-17T00:16:28.774Z,96171.69
2022-09-17T00:18:56.792Z,96163.56
2022-09-17T00:21:26.090Z,96154.59
2022-09-17T00:24:03.256Z,96151.13
2022-09-17T00:26:31.441Z,96148.41
2022-09-17T00:28:59.405Z,96152.69
2022-09-17T00:31:28.649Z,96159.31
2022-09-17T00:33:55.683Z,96151.13
2022-09-17T00:36:23.477Z,96150.75
2022-09-17T00:38:55.044Z,96157.78
2022-09-17T00:41:23.698Z,96144.94
2022-09-17T00:43:59.028Z,96154.63
2022-09-17T00:46:35.468Z,96150.75
2022-09-17T00:49:16.601Z,96149.19
2022-09-17T00:52:00.170Z,96144.53
2022-09-17T00:54:30.148Z,96146.84
2022-09-17T00:57:00.246Z,96147.25
2022-09-17T00:59:29.739Z,96148.38
2022-09-17T01:01:57.054Z,96147.59
2022-09-17T01:04:26.437Z,96161.19
2022-09-17T01:07:20.241Z,96170.84
2022-09-17T01:10:17.323Z,96173.59
2022-09-17T01:13:18.122Z,96173.22
2022-09-17T01:16:10.408Z,96177.91
2022-09-17T01:19:05.733Z,96179.47
2022-09-17T01:21:51.178Z,96176.75
2022-09-17T01:25:02.402Z,96163.94
2022-09-17T01:27:31.881Z,96153.44
2022-09-17T01:30:25.889Z,96157.34
2022-09-17T01:33:03.039Z,96156.91
2022-09-17T01:35:49.336Z,96154.59
2022-09-17T01:38:31.818Z,96156.88
2022-09-17T01:41:16.043Z,96165.38
2022-09-17T01:43:55.329Z,96166.97
2022-09-17T01:46:30.996Z,96173.88
2022-09-17T01:49:02.557Z,96176.25
2022-09-17T01:51:36.617Z,96184.00
2022-09-17T01:54:10.217Z,96187.84
2022-09-17T01:56:44.941Z,96192.91
2022-09-17T01:59:25.369Z,96184.34
2022-09-17T02:01:58.259Z,96188.63
2022-09-17T02:04:33.430Z,96191.34
2022-09-17T02:07:08.896Z,96195.56
2022-09-17T02:09:52.324Z,96201.84
2022-09-17T02:12:26.165Z,96186.25
2022-09-17T02:14:57.281Z,96200.28
2022-09-17T02:17:44.191Z,96197.88
2022-09-17T02:20:12.310Z,96208.38
2022-09-17T02:22:56.875Z,96223.53
2022-09-17T02:25:33.114Z,96217.28
2022-09-17T02:28:08.760Z,96229.75
2022-09-17T02:30:39.150Z,96231.25
2022-09-17T02:33:13.973Z,96238.69
2022-09-17T02:35:41.382Z,96242.94
2022-09-17T02:38:08.561Z,96247.59
2022-09-17T02:40:54.676Z,96263.97
2022-09-17T02:43:39.182Z,96258.88
2022-09-17T02:46:23.422Z,96263.97
2022-09-17T02:49:22.405Z,96262.38
2022-09-17T02:52:32.726Z,96267.44
2022-09-17T02:55:20.669Z,96263.19
2022-09-17T02:58:22.376Z,96267.88
2022-09-17T03:00:49.488Z,96255.44
2022-09-17T03:03:31.889Z,96250.78
2022-09-17T03:06:00.520Z,96261.66
2022-09-17T03:08:35.314Z,96251.50
2022-09-17T03:11:03.643Z,96267.50
2022-09-17T03:13:31.206Z,96240.69
2022-09-17T03:15:58.620Z,96254.69
2022-09-17T03:18:25.627Z,96257.78
2022-09-17T03:20:53.060Z,96253.09
2022-09-17T03:23:20.274Z,96262.06
2022-09-17T03:25:52.121Z,96250.78
2022-09-17T03:28:19.177Z,96259.34
2022-09-17T03:30:49.233Z,96261.31
2022-09-17T03:33:18.853Z,96257.41
2022-09-17T03:35:46.296Z,96264.06
2022-09-17T03:38:15.843Z,96259.34
2022-09-17T03:40:43.277Z,96266.38
2022-09-17T03:43:10.381Z,96264.06
2022-09-17T03:45:37.429Z,96267.16
2022-09-17T03:48:04.059Z,96271.03
2022-09-17T03:50:31.324Z,96267.50
2022-09-17T03:52:57.953Z,96269.88
2022-09-17T03:55:24.590Z,96269.47
2022-09-17T03:57:51.573Z,96272.56
2022-09-17T04:00:20.634Z,96265.59
2022-09-17T04:02:47.761Z,96274.88
2022-09-17T04:05:14.661Z,96279.59
2022-09-17T04:07:42.728Z,96271.78
2022-09-17T04:10:09.592Z,96275.66
2022-09-17T04:12:36.880Z,96273.34
2022-09-17T04:15:04.490Z,96265.94
2022-09-17T04:17:31.379Z,96278.81
2022-09-17T04:19:58.604Z,96283.41
2022-09-17T04:22:26.263Z,96284.97
2022-09-17T04:24:52.895Z,96274.09
2022-09-17T04:27:19.551Z,96273.31
2022-09-17T04:29:46.165Z,96278.00
2022-09-17T04:32:14.858Z,96274.09
2022-09-17T04:34:41.563Z,96281.88
2022-09-17T04:37:08.305Z,96282.25
2022-09-17T04:39:35.631Z,96296.63
2022-09-17T04:42:02.246Z,96290.41
2022-09-17T04:44:28.860Z,96300.88
2022-09-17T04:46:55.671Z,96298.19
2022-09-17T04:49:22.385Z,96298.94
2022-09-17T04:51:48.995Z,96300.50
2022-09-17T04:54:15.743Z,96295.47
2022-09-17T04:56:42.345Z,96297.00
2022-09-17T04:59:11.592Z,96308.28
2022-09-17T05:01:38.245Z,96297.00
2022-09-17T05:04:04.920Z,96299.72
2022-09-17T05:06:31.526Z,96302.84
2022-09-17T05:08:59.091Z,96291.56
2022-09-17T05:11:26.093Z,96302.84
2022-09-17T05:13:52.699Z,96300.13
2022-09-17T05:16:19.879Z,96302.44
2022-09-17T05:18:46.978Z,96305.16
2022-09-17T05:21:14.405Z,96295.03
2022-09-17T05:23:41.104Z,96298.16
2022-09-17T05:26:07.665Z,96291.91
2022-09-17T05:28:34.325Z,96288.81
2022-09-17T05:31:01.917Z,96291.91
2022-09-17T05:33:29.202Z,96292.69
2022-09-17T05:35:57.976Z,96288.84
2022-09-17T05:38:26.836Z,96284.13
2022-09-17T05:40:53.541Z,96289.63
2022-09-17T05:43:20.219Z,96281.09
2022-09-17T05:45:46.866Z,96288.84
2022-09-17T05:48:15.446Z,96289.69
2022-09-17T05:50:42.438Z,96287.28
2022-09-17T05:53:12.328Z,96295.06
2022-09-17T05:55:39.676Z,96284.97
2022-09-17T05:58:25.024Z,96294.69
2022-09-17T06:00:51.872Z,96288.88
2022-09-17T06:03:22.606Z,96290.41
2022-09-17T06:06:01.264Z,96289.69
2022-09-17T06:08:32.273Z,96280.31
2022-09-17T06:11:04.901Z,96284.19
2022-09-17T06:13:31.757Z,96277.19
2022-09-17T06:15:58.497Z,96283.41
2022-09-17T06:18:25.225Z,96274.06
2022-09-17T06:20:56.489Z,96274.78
2022-09-17T06:23:24.285Z,96281.41
2022-09-17T06:25:57.030Z,96280.94
2022-09-17T06:28:24.699Z,96295.69
2022-09-17T06:30:54.595Z,96301.53
2022-09-17T06:33:21.992Z,96296.41
2022-09-17T06:35:50.924Z,96315.09
2022-09-17T06:38:17.639Z,96311.91
2022-09-17T06:40:47.136Z,96321.25
2022-09-17T06:43:15.540Z,96322.78
2022-09-17T06:45:43.536Z,96322.69
2022-09-17T06:48:10.457Z,96347.56
2022-09-17T06:50:40.672Z,96336.56
2022-09-17T06:53:10.392Z,96360.69
2022-09-17T06:55:40.655Z,96357.44
2022-09-17T06:58:07.536Z,96362.44
2022-09-17T07:00:34.600Z,96370.19
2022-09-17T07:03:01.748Z,96389.97
2022-09-17T07:05:30.045Z,96408.72
2022-09-17T07:07:57.686Z,96399.28
2022-09-17T07:10:25.480Z,96420.00
2022-09-17T07:12:52.437Z,96431.28
2022-09-17T07:15:19.678Z,96422.59
2022-09-17T07:17:47.046Z,96418.78
2022-09-17T07:20:14.389Z,96414.44
2022-09-17T07:22:43.729Z,96433.53
2022-09-17T07:25:11.057Z,96448.31
2022-09-17T07:27:38.016Z,96456.50
2022-09-17T07:30:08.762Z,96448.31
2022-09-17T07:32:35.679Z,96439.66
2022-09-17T07:35:04.060Z,96457.66
2022-09-17T07:37:30.978Z,96453.72
2022-09-17T07:39:57.961Z,96466.13
2022-09-17T07:42:24.937Z,96482.53
2022-09-17T07:44:51.842Z,96464.94
2022-09-17T07:47:18.873Z,96494.28
2022-09-17T07:49:46.074Z,96484.09
2022-09-17T07:52:13.154Z,96475.53
2022-09-17T07:54:40.068Z,96484.13
2022-09-17T07:57:07.156Z,96470.00
2022-09-17T07:59:36.293Z,96470.88
2022-09-17T08:02:03.421Z,96471.56
2022-09-17T08:04:30.530Z,96489.16
2022-09-17T08:06:57.525Z,96478.59
2022-09-17T08:09:25.200Z,96483.97
2022-09-17T08:11:56.832Z,96486.00
2022-09-17T08:14:29.194Z,96475.41
2022-09-17T08:16:56.803Z,96483.66
2022-09-17T08:19:24.110Z,96474.63
2022-09-17T08:21:51.397Z,96490.19
2022-09-17T08:24:20.876Z,96507.78
2022-09-17T08:26:47.778Z,96501.03
2022-09-17T08:29:15.002Z,96504.94
2022-09-17T08:31:42.138Z,96504.09
2022-09-17T08:34:10.104Z,96487.66
2022-09-17T08:36:37.658Z,96504.03
2022-09-17T08:39:05.064Z,96503.16
2022-09-17T08:41:34.962Z,96518.00
2022-09-17T08:44:07.596Z,96512.03
2022-09-17T08:46:43.625Z,96527.34
2022-09-17T08:49:25.281Z,96533.56
2022-09-17T08:51:53.421Z,96529.97
2022-09-17T08:55:03.472Z,96518.63
2022-09-17T08:57:57.352Z,96541.56
2022-09-17T09:00:25.255Z,96545.16
2022-09-17T09:03:11.783Z,96534.94
2022-09-17T09:05:54.779Z,96534.22
2022-09-17T09:08:37.364Z,96531.69
2022-09-17T09:11:17.220Z,96534.47
2022-09-17T09:14:14.229Z,96536.25
2022-09-17T09:16:45.264Z,96547.34
2022-09-17T09:19:28.530Z,96564.09
2022-09-17T09:22:05.241Z,96569.13
2022-09-17T09:24:52.210Z,96570.66
2022-09-17T09:27:24.033Z,96565.94
2022-09-17T09:30:01.986Z,96583.88
2022-09-17T09:32:36.609Z,96582.31
2022-09-17T09:35:14.593Z,96582.41
2022-09-17T09:37:52.604Z,96583.56
2022-09-17T09:40:31.385Z,96587.81
2022-09-17T09:43:03.316Z,96583.88
2022-09-17T09:45:45.025Z,96583.06
2022-09-17T09:48:33.632Z,96569.41
2022-09-17T09:51:10.224Z,96566.63
2022-09-17T09:53:46.457Z,96564.59
2022-09-17T09:56:25.406Z,96581.44
2022-09-17T09:58:52.161Z,96577.53
2022-09-17T10:01:23.571Z,96587.22
2022-09-17T10:04:11.436Z,96593.16
2022-09-17T10:09:35.463Z,96594.00
2022-09-17T10:32:48.937Z,96602.53
2022-09-17T10:48:52.374Z,96632.63
2022-09-17T10:55:27.491Z,96665.09
2022-09-17T10:58:11.374Z,96691.69
2022-09-17T11:14:14.144Z,96701.16
2022-09-17T11:30:28.136Z,96735.16
2022-09-17T12:07:28.658Z,96693.56
2022-09-17T12:10:41.585Z,96690.81
2022-09-17T12:13:50.457Z,96675.53
2022-09-17T12:16:43.857Z,96681.78
2022-09-17T12:19:39.948Z,96678.63
2022-09-17T12:22:13.001Z,96691.81
2022-09-17T12:24:43.209Z,96683.66
2022-09-17T12:28:12.456Z,96687.44
2022-09-17T12:30:50.178Z,96682.84
2022-09-17T12:40:13.721Z,96668.81
2022-09-17T12:45:50.724Z,96647.56
2022-09-17T12:48:42.057Z,96679.00
2022-09-17T12:51:23.885Z,96676.38
2022-09-17T13:07:05.662Z,96664.47
2022-09-17T13:10:13.726Z,96666.84
2022-09-17T13:12:54.221Z,96690.13
2022-09-17T13:15:40.471Z,96765.66
2022-09-17T13:21:09.035Z,96767.97
2022-09-17T13:23:51.464Z,96812.97
2022-09-17T13:26:34.297Z,96810.88
2022-09-17T13:29:01.921Z,96807.16
2022-09-17T13:31:39.276Z,96837.72
2022-09-17T13:34:22.258Z,96830.88
2022-09-17T13:36:58.152Z,96858.25
2022-09-17T13:40:01.968Z,96894.75
2022-09-17T13:42:31.383Z,96914.25
2022-09-17T13:45:16.787Z,96922.38
2022-09-17T13:47:56.222Z,96931.78
2022-09-17T13:50:43.959Z,96923.13
2022-09-17T13:53:16.575Z,96921.47
2022-09-17T13:56:01.180Z,96942.41
2022-09-17T13:58:34.538Z,96954.63
2022-09-17T14:01:06.138Z,96930.25
2022-09-17T14:03:38.512Z,96932.66
2022-09-17T14:06:05.256Z,96905.16
2022-09-17T14:08:43.864Z,96892.31
2022-09-17T14:11:22.325Z,96897.88
2022-09-17T14:13:55.866Z,96914.19
2022-09-17T14:16:29.154Z,96918.09
2022-09-17T14:18:59.698Z,96913.47
2022-09-17T14:21:35.494Z,96930.53
2022-09-17T14:24:14.346Z,96923.94
2022-09-17T14:26:57.791Z,96932.53
2022-09-17T14:29:55.813Z,96965.28
2022-09-17T14:32:36.393Z,96984.25
2022-09-17T14:35:19.197Z,96988.53
2022-09-17T14:37:53.074Z,96997.25
2022-09-17T14:40:21.499Z,96981.66
2022-09-17T14:42:57.897Z,96995.75
2022-09-17T14:45:29.829Z,96990.41
2022-09-17T14:48:34.835Z,96968.28
2022-09-17T14:51:20.037Z,96976.16
2022-09-17T14:53:49.085Z,96970.69
2022-09-17T14:56:19.872Z,96959.03
2022-09-17T14:58:53.845Z,96968.69
2022-09-17T15:01:26.491Z,96965.66
2022-09-17T15:04:15.062Z,96962.91
2022-09-17T15:06:43.709Z,96953.94
2022-09-17T15:09:18.500Z,96941.06
2022-09-17T15:11:50.231Z,96932.94
2022-09-17T15:14:21.321Z,96930.63
2022-09-17T15:16:50.716Z,96921.00
2022-09-17T15:19:29.014Z,96915.19
2022-09-17T15:21:57.409Z,96914.09
2022-09-17T15:24:48.176Z,96909.16
2022-09-17T15:27:28.342Z,96901.28
2022-09-17T15:30:16.037Z,96879.63
2022-09-17T15:32:49.124Z,96862.84
2022-09-17T15:35:15.831Z,96865.19
2022-09-17T15:38:11.541Z,96840.69
2022-09-17T15:40:41.899Z,96853.44
2022-09-17T15:43:27.937Z,96850.78
2022-09-17T15:45:55.337Z,96829.41
2022-09-17T15:48:27.828Z,96845.75
2022-09-17T15:50:57.221Z,96852.94
2022-09-17T15:53:26.710Z,96851.78
2022-09-17T15:56:31.283Z,96852.25
2022-09-17T15:59:03.411Z,96825.81
2022-09-17T16:01:30.088Z,96833.97
2022-09-17T16:04:01.936Z,96839.91
2022-09-17T16:06:28.608Z,96819.28
2022-09-17T16:08:57.657Z,96818.06
2022-09-17T16:11:26.668Z,96799.06
2022-09-17T16:13:55.651Z,96767.47
2022-09-17T16:16:36.927Z,96783.06
2022-09-17T16:19:06.730Z,96750.06
2022-09-17T16:21:34.094Z,96749.16
2022-09-17T16:24:00.872Z,96737.09
2022-09-17T16:26:32.506Z,96722.63
2022-09-17T16:29:11.045Z,96744.00
2022-09-17T16:31:37.885Z,96713.00
2022-09-17T16:34:04.922Z,96716.06
2022-09-17T16:36:32.332Z,96721.94
2022-09-17T16:38:59.631Z,96714.22
2022-09-17T16:41:26.606Z,96724.25
2022-09-17T16:43:53.480Z,96727.84
2022-09-17T16:46:20.195Z,96723.19
2022-09-17T16:48:50.076Z,96729.38
2022-09-17T16:51:17.009Z,96714.66
2022-09-17T16:53:43.656Z,96707.59
2022-09-17T16:56:11.903Z,96714.28
2022-09-17T16:58:38.752Z,96703.38
2022-09-17T17:01:09.347Z,96709.22
2022-09-17T17:03:36.048Z,96673.47
2022-09-17T17:06:03.947Z,96672.66
2022-09-17T17:08:34.107Z,96637.69
2022-09-17T17:11:01.094Z,96595.69
2022-09-17T17:13:30.336Z,96593.38
2022-09-17T17:15:57.108Z,96548.31
2022-09-17T17:18:24.774Z,96556.03
2022-09-17T17:20:52.436Z,96510.22
2022-09-17T17:23:19.688Z,96509.44
2022-09-17T17:25:46.902Z,96523.03
2022-09-17T17:28:15.457Z,96515.63
2022-09-17T17:30:42.072Z,96538.94
2022-09-17T17:33:08.740Z,96516.41
2022-09-17T17:35:39.120Z,96525.72
2022-09-17T17:38:08.149Z,96529.28
2022-09-17T17:40:35.266Z,96508.72
2022-09-17T17:43:04.214Z,96497.44
2022-09-17T17:45:33.228Z,96472.19
2022-09-17T17:48:01.968Z,96472.94
2022-09-17T17:50:28.608Z,96445.81
2022-09-17T17:52:55.621Z,96424.81
2022-09-17T17:55:22.436Z,96432.59
2022-09-17T17:58:00.223Z,96398.41
2022-09-17T18:00:27.916Z,96403.84
2022-09-17T18:02:54.608Z,96382.50
2022-09-17T18:05:22.288Z,96391.41
2022-09-17T18:07:49.840Z,96401.88
2022-09-17T18:10:17.082Z,96391.41
2022-09-17T18:12:50.725Z,96405.72
2022-09-17T18:15:17.528Z,96403.75
2022-09-17T18:17:44.210Z,96400.56
2022-09-17T18:20:11.245Z,96407.56
2022-09-17T18:22:38.652Z,96385.78
2022-09-17T18:25:05.839Z,96390.38
2022-09-17T18:27:32.824Z,96346.94
2022-09-17T18:29:59.573Z,96325.91
2022-09-17T18:32:26.187Z,96293.75
2022-09-17T18:34:52.833Z,96262.25
2022-09-17T18:37:19.571Z,96344.59
2022-09-17T18:39:58.375Z,96346.88
2022-09-17T18:42:25.716Z,96361.63
2022-09-17T18:44:52.468Z,96360.06
2022-09-17T18:47:19.252Z,96365.47
2022-09-17T18:49:46.070Z,96359.63
2022-09-17T18:52:12.765Z,96358.41
2022-09-17T18:54:39.467Z,96355.28
2022-09-17T18:57:06.644Z,96352.25
2022-09-17T18:59:33.530Z,96312.81
2022-09-17T19:02:00.602Z,96300.38
2022-09-17T19:04:28.724Z,96291.38
2022-09-17T19:06:55.936Z,96287.81
2022-09-17T19:09:24.907Z,96300.25
2022-09-17T19:11:51.661Z,96303.84
2022-09-17T19:14:20.665Z,96280.94
2022-09-17T19:16:47.424Z,96270.00
2022-09-17T19:19:14.537Z,96278.13
2022-09-17T19:21:42.488Z,96287.06
2022-09-17T19:24:09.263Z,96282.47
2022-09-17T19:26:35.882Z,96260.72
2022-09-17T19:29:02.704Z,96258.38
2022-09-17T19:31:29.449Z,96257.97
2022-09-17T19:33:56.968Z,96260.72
2022-09-17T19:36:23.726Z,96238.28
2022-09-17T19:38:50.480Z,96233.97
2022-09-17T19:41:23.458Z,96233.53
2022-09-17T19:43:51.998Z,96234.38
2022-09-17T19:46:21.204Z,96212.78
2022-09-17T19:48:55.554Z,96180.88
2022-09-17T19:51:24.210Z,96188.59
2022-09-17T19:53:51.449Z,96195.63
2022-09-17T19:56:20.591Z,96186.47
2022-09-17T19:58:47.581Z,96166.28
2022-09-17T20:01:15.624Z,96172.94
2022-09-17T20:03:44.615Z,96126.44
2022-09-17T20:06:14.036Z,96126.75
2022-09-17T20:08:47.075Z,96101.63
2022-09-17T20:11:17.435Z,96079.50
2022-09-17T20:13:44.363Z,96080.97
2022-09-17T20:16:19.546Z,96095.69
2022-09-17T20:18:47.297Z,96087.28
2022-09-17T20:21:17.795Z,96073.34
2022-09-17T20:23:46.186Z,96083.44
2022-09-17T20:26:15.841Z,96051.69
2022-09-17T20:28:43.345Z,96031.84
2022-09-17T20:31:16.272Z,96033.47
2022-09-17T20:33:43.356Z,95997.41
2022-09-17T20:36:16.237Z,96008.28
2022-09-17T20:41:32.006Z,95943.09
2022-09-17T20:44:01.166Z,95945.47
2022-09-17T20:46:29.551Z,95936.19
2022-09-17T20:48:58.349Z,95938.88
2022-09-17T20:51:31.017Z,95934.72
2022-09-17T20:53:58.165Z,95944.78
2022-09-17T20:56:33.420Z,95957.19
2022-09-17T20:59:13.748Z,95928.53
2022-09-17T21:01:45.096Z,95922.63
2022-09-17T21:04:15.130Z,95918.84
2022-09-17T21:06:45.104Z,95889.34
2022-09-17T21:09:16.392Z,95891.28
2022-09-17T21:11:45.006Z,95880.47
2022-09-17T21:14:12.572Z,95874.97
2022-09-17T21:16:39.441Z,95875.03
2022-09-17T21:19:08.640Z,95876.16
2022-09-17T21:21:36.402Z,95891.28
2022-09-17T21:24:06.906Z,95896.75
2022-09-17T21:26:35.021Z,95895.91
2022-09-17T21:29:02.521Z,95906.44
2022-09-17T21:31:37.229Z,95911.47
2022-09-17T21:34:13.629Z,95936.28
2022-09-17T21:36:45.704Z,95926.97
2022-09-17T21:39:17.184Z,95923.03
2022-09-17T21:41:50.144Z,95940.16
2022-09-17T21:44:17.134Z,95926.97
2022-09-17T21:46:44.089Z,95939.38
2022-09-17T21:49:13.324Z,95941.31
2022-09-17T21:51:42.609Z,95943.25
2022-09-17T21:54:14.554Z,95958.03
2022-09-17T21:56:41.888Z,95952.56
2022-09-17T21:59:12.022Z,95962.63
2022-09-17T22:01:41.568Z,95971.59
2022-09-17T22:04:13.387Z,95970.78
2022-09-17T22:06:43.036Z,95976.66
2022-09-17T22:09:21.185Z,95970.03
2022-09-17T22:11:48.240Z,95975.88
2022-09-17T22:14:19.822Z,95967.34
2022-09-17T22:16:51.066Z,95968.50
2022-09-17T22:19:20.368Z,95979.75
2022-09-17T22:21:53.435Z,95965.41
2022-09-17T22:24:24.300Z,95980.56
2022-09-17T22:26:57.271Z,95960.41
2022-09-17T22:29:26.098Z,95973.56
2022-09-17T22:31:53.740Z,95972.03
2022-09-17T22:34:23.085Z,95980.50
2022-09-17T22:36:50.181Z,95974.69
2022-09-17T22:39:19.262Z,95979.72
2022-09-17T22:41:46.392Z,95988.25
2022-09-17T22:44:15.849Z,95994.84
2022-09-17T22:46:45.187Z,95991.75
2022-09-17T22:49:14.982Z,95990.63
2022-09-17T22:51:43.714Z,95998.72
2022-09-17T22:54:14.878Z,96004.94
2022-09-17T22:56:42.546Z,95996.81
2022-09-17T22:59:09.754Z,96009.97
2022-09-17T23:01:37.576Z,96009.97
2022-09-17T23:04:05.705Z,96012.31
2022-09-17T23:06:38.434Z,96023.94
2022-09-17T23:09:05.959Z,96029.75
2022-09-17T23:11:37.968Z,96048.72
2022-09-17T23:14:08.446Z,96048.72
2022-09-17T23:16:46.218Z,96050.28
2022-09-17T23:19:15.731Z,96055.69
2022-09-17T23:21:43.869Z,96061.13
2022-09-17T23:24:17.381Z,96080.09
2022-09-17T23:26:44.599Z,96077.38
2022-09-17T23:29:11.558Z,96078.53
2022-09-17T23:31:39.025Z,96097.13
2022-09-17T23:34:06.985Z,96078.91
2022-09-17T23:36:36.869Z,96080.84
2022-09-17T23:39:05.152Z,96078.53
2022-09-17T23:41:37.688Z,96095.19
2022-09-17T23:44:12.137Z,96082.41
2022-09-17T23:46:42.782Z,96076.97
2022-09-17T23:49:13.897Z,96068.78
2022-09-17T23:51:41.316Z,96057.22
2022-09-17T23:54:08.338Z,96060.63
2022-09-17T23:56:35.648Z,96054.47
2022-09-17T23:59:03.405Z,96050.22
